Flight Track Log - Related Links

Times and Time Zones

All times are in EDT time to prevent confusion due to time zone crossing. See the SWA3584 flight status page for this flight to view local times or setup timezone preferences in your user account.

Time Position Orientation Groundspeed Altitude Reporting Facility
EDT Latitude Longitude Course Direction KTS MPH feet Rate Location/Type
Wed 10:17:26 AM 39.8564 -75.2953 249° West 163 188 1,600  Level FAA TRACON SMA TRACON (SMA)
Wed 10:17:46 AM 39.8511 -75.3175 253° West 202 232 2,200 2,400 Climbing FAA TRACON SMA TRACON (SMA)
Wed 10:18:06 AM 39.8456 -75.3428 254° West 204 235 3,200 2,700 Climbing FAA TRACON SMA TRACON (SMA)
Wed 10:18:26 AM 39.8400 -75.3653 252° West 207 238 4,000 2,100 Climbing FAA TRACON SMA TRACON (SMA)
Wed 10:18:46 AM 39.8328 -75.3911 250° West 222 255 4,600 2,400 Climbing FAA TRACON SMA TRACON (SMA)
Wed 10:19:06 AM 39.8261 -75.4211 254° West 250 288 5,600 3,450 Climbing FAA TRACON SMA TRACON (SMA)
Wed 10:19:26 AM 39.8186 -75.4533 253° West 249 287 6,900 3,450 Climbing FAA TRACON SMA TRACON (SMA)
Wed 10:19:46 AM 39.8128 -75.4806 254° West 247 284 7,900 2,700 Climbing FAA TRACON SMA TRACON (SMA)
Wed 10:20:06 AM 39.8131 -75.5078 271° West 249 287 8,700 2,634 Climbing FAA TRACON SMA TRACON (SMA)
Wed 10:20:27 AM 39.8181 -75.5431 280° West 258 297 9,700 1,950 Climbing FAA TRACON SMA TRACON (SMA)
Wed 10:20:46 AM 39.8217 -75.5697 280° West 258 297 10,000 615 Climbing FAA TRACON SMA TRACON (SMA)
Wed 10:21:06 AM 39.8267 -75.6036 281° West 284 327 10,100 750 Climbing FAA TRACON SMA TRACON (SMA)
Wed 10:21:26 AM 39.8311 -75.6367 280° West 302 348 10,500 2,700 Climbing FAA TRACON SMA TRACON (SMA)
Wed 10:21:46 AM 39.8369 -75.6789 280° West 307 353 11,900 3,450 Climbing FAA TRACON SMA TRACON (SMA)
Wed 10:22:06 AM 39.8417 -75.7117 281° West 307 353 12,800 2,700 Climbing FAA TRACON SMA TRACON (SMA)
Wed 10:22:26 AM 39.8472 -75.7472 282° West 309 356 13,700 2,700 Climbing FAA TRACON SMA TRACON (SMA)
Wed 10:22:46 AM 39.8511 -75.7869 277° West 317 365 14,600 2,550 Climbing FAA TRACON SMA TRACON (SMA)
Wed 10:23:06 AM 39.8581 -75.8269 283° West 323 372 15,400 2,400 Climbing FAA TRACON SMA TRACON (SMA)
Wed 10:23:26 AM 39.8628 -75.8639 279° West 332 382 16,200 2,550 Climbing FAA TRACON SMA TRACON (SMA)
Wed 10:23:46 AM 39.8694 -75.9078 281° West 339 390 17,100 2,550 Climbing FAA TRACON SMA TRACON (SMA)
Wed 10:24:06 AM 39.8744 -75.9472 279° West 339 390 17,900 1,500 Climbing FAA TRACON SMA TRACON (SMA)
Wed 10:24:26 AM 39.8764 -75.9572 284° West 340 391 18,100 197 Climbing FAA TRACON SMA TRACON (SMA)
Wed 10:25:07 AM 39.8764 -75.9572 237° Southwest 340 391 18,100 1,965 Level FAA TRACON SMA TRACON (SMA)
Wed 10:27:17 AM 39.9131 -76.3461 277° West 367 422 23,700 2,325 Climbing New York Center
Wed 10:28:18 AM 39.9167 -76.4844 272° West 379 436 25,500 1,463 Climbing New York Center
Wed 10:30:42 AM 39.8761 -76.8297 261° West 407 468 28,700 1,500 Climbing Washington Center
Wed 10:31:42 AM 39.8058 -76.9744 238° Southwest 412 474 30,600 1,650 Climbing Washington Center
Wed 10:32:42 AM 39.7525 -77.0839 238° Southwest 423 487 32,000 1,500 Climbing Washington Center
Wed 10:33:42 AM 39.6881 -77.2228 239° Southwest 423 487 33,600 1,000 Climbing Washington Center
Wed 10:34:42 AM 39.6322 -77.3347 237° Southwest 417 480 34,000 200 Climbing Washington Center
Wed 10:35:42 AM 39.5678 -77.4706 238° Southwest 412 474 34,000  Level Washington Center
Wed 10:36:42 AM 39.5139 -77.5847 239° Southwest 412 474 34,000  Level Washington Center
Wed 10:37:42 AM 39.4469 -77.7228 238° Southwest 412 474 34,000  Level Washington Center
Wed 10:38:42 AM 39.3928 -77.8367 238° Southwest 417 480 34,000 500 Level Washington Center
Wed 10:39:42 AM 39.3378 -77.9772 243° Southwest 417 480 35,000 950 Climbing Washington Center
Wed 10:40:42 AM 39.2811 -78.1039 240° Southwest 411 473 35,900 500 Climbing Washington Center
Wed 10:41:42 AM 39.2392 -78.2150 244° Southwest 400 460 36,000 50 Climbing Washington Center
Wed 10:42:42 AM 39.1842 -78.3497 242° Southwest 394 453 36,000  Level Washington Center
Wed 10:43:42 AM 39.1397 -78.4606 243° Southwest 394 453 36,000  Level Washington Center
Wed 10:45:00 AM 39.0730 -78.6113 240° Southwest  Level FlightAware Approximate
Wed 10:45:42 AM 39.0372 -78.7289 240° Southwest 394 453 36,000  Level Washington Center
Wed 10:46:42 AM 38.9858 -78.8550 242° Southwest 399 459 36,000  Level Washington Center
Wed 10:47:42 AM 38.9369 -78.9650 240° Southwest 407 468 36,000  Level Washington Center
Wed 10:48:42 AM 38.8900 -79.0775 242° Southwest 407 468 36,000  Level Washington Center
Wed 10:49:42 AM 38.8372 -79.2375 247° West 407 468 36,000  Level Washington Center
Wed 10:50:42 AM 38.8122 -79.3775 257° West 407 468 36,000  Level Washington Center
Wed 10:51:42 AM 38.7867 -79.5175 257° West 407 468 36,000  Level Washington Center
Wed 10:53:57 AM 38.7286 -79.8122 256° West 405 466 36,000  Level Indianapolis Center
Wed 10:54:59 AM 38.7036 -79.9494 257° West 399 459 36,000  Level Indianapolis Center
Wed 10:56:00 AM 38.6772 -80.0878 256° West 399 459 36,000  Level Indianapolis Center
Wed 10:57:02 AM 38.6528 -80.2233 257° West 393 452 36,000  Level Indianapolis Center
Wed 10:58:03 AM 38.6264 -80.3586 256° West 392 451 36,000  Level Indianapolis Center
Wed 10:59:05 AM 38.6022 -80.4936 257° West 391 450 36,000  Level Indianapolis Center
Wed 11:00:07 AM 38.5706 -80.6561 256° West 390 449 36,000  Level Indianapolis Center
Wed 11:01:08 AM 38.5444 -80.7917 256° West 392 451 36,000  Level Indianapolis Center
Wed 11:02:10 AM 38.5178 -80.9261 256° West 389 448 36,000  Level Indianapolis Center
Wed 11:03:12 AM 38.4914 -81.0617 256° West 392 451 36,000  Level Indianapolis Center
Wed 11:04:13 AM 38.4650 -81.1969 256° West 391 450 36,000  Level Indianapolis Center
Wed 11:05:15 AM 38.4375 -81.3308 255° West 388 447 36,000  Level Indianapolis Center
Wed 11:06:17 AM 38.4103 -81.4667 256° West 390 449 36,000  Level Indianapolis Center
Wed 11:07:18 AM 38.3836 -81.6031 256° West 391 450 36,000  Level Indianapolis Center
Wed 11:08:20 AM 38.3567 -81.7372 256° West 388 447 36,000  Level Indianapolis Center
Wed 11:09:22 AM 38.3231 -81.8703 252° West 393 452 36,000  Level Indianapolis Center
Wed 11:10:23 AM 38.2858 -81.9986 250° West 386 444 36,000  Level Indianapolis Center
Wed 11:11:25 AM 38.2408 -82.1544 250° West 390 449 36,000  Level Indianapolis Center
Wed 11:12:27 AM 38.2053 -82.2867 251° West 393 452 36,000  Level Indianapolis Center
Wed 11:13:28 AM 38.1686 -82.4186 251° West 394 453 36,000  Level Indianapolis Center
Wed 11:14:30 AM 38.1300 -82.5467 249° West 392 451 36,000  Level Indianapolis Center
Wed 11:15:32 AM 38.0922 -82.6781 250° West 394 453 36,000  Level Indianapolis Center
Wed 11:16:34 AM 38.0525 -82.8086 249° West 398 458 36,000  Level Indianapolis Center
Wed 11:17:35 AM 37.9839 -82.9475 238° Southwest 396 456 36,000  Level Indianapolis Center
Wed 11:18:37 AM 37.9253 -83.0683 238° Southwest 401 461 36,000 -194 Level Indianapolis Center
Wed 11:19:39 AM 37.8661 -83.1900 238° Southwest 404 465 35,600 -629 Descending Indianapolis Center
Wed 11:20:41 AM 37.8078 -83.3108 239° Southwest 404 465 34,700 -774 Descending Indianapolis Center
Wed 11:21:43 AM 37.7478 -83.4322 238° Southwest 406 467 34,000 -341 Descending Indianapolis Center
Wed 11:22:44 AM 37.6786 -83.5739 238° Southwest 406 467 34,000  Level Indianapolis Center
Wed 11:23:46 AM 37.6181 -83.6961 238° Southwest 411 473 34,000  Level Indianapolis Center
Wed 11:24:48 AM 37.5561 -83.8197 238° Southwest 416 479 34,000  Level Indianapolis Center
Wed 11:25:50 AM 37.4947 -83.9433 238° Southwest 417 480 34,000 -484 Level Indianapolis Center
Wed 11:26:52 AM 37.4339 -84.0642 238° Southwest 412 474 33,000 -919 Descending Indianapolis Center
Wed 11:27:54 AM 37.3739 -84.1856 238° Southwest 411 473 32,100 -968 Descending Indianapolis Center
Wed 11:28:56 AM 37.3042 -84.3233 238° Southwest 403 464 31,000 -1,024 Descending Indianapolis Center
Wed 11:29:57 AM 37.2439 -84.4431 238° Southwest 404 465 30,000 -976 Descending Indianapolis Center
Wed 11:30:59 AM 37.1842 -84.5597 237° Southwest 400 460 29,000 -968 Descending Indianapolis Center
Wed 11:32:01 AM 37.1253 -84.6767 238° Southwest 396 456 28,000 -968 Descending Indianapolis Center
Wed 11:33:03 AM 37.0658 -84.7911 237° Southwest 392 451 27,000 -1,065 Descending Indianapolis Center
Wed 11:34:05 AM 37.0022 -84.9144 237° Southwest 380 437 25,800 -1,073 Descending Indianapolis Center
Wed 11:35:06 AM 36.9461 -85.0247 238° Southwest 377 434 24,800 -927 Descending Indianapolis Center
Wed 11:36:08 AM 36.8903 -85.1325 237° Southwest 372 428 23,900 -919 Descending Indianapolis Center
Wed 11:37:10 AM 36.8361 -85.2375 237° Southwest 363 418 22,900 -919 Descending Indianapolis Center
Wed 11:38:12 AM 36.7836 -85.3417 238° Southwest 357 411 22,000 -574 Descending Indianapolis Center
Wed 11:38:44 AM 36.7494 -85.4033 235° Southwest 370 426 22,000 -261 Level Memphis Center
Wed 11:39:44 AM 36.6958 -85.5231 241° Southwest 370 426 21,600 -900 Descending Memphis Center
Wed 11:40:44 AM 36.6475 -85.6167 237° Southwest 370 426 20,200 -1,750 Descending Memphis Center
Wed 11:41:44 AM 36.6011 -85.7175 240° Southwest 360 414 18,100 -2,250 Descending Memphis Center
Wed 11:42:44 AM 36.5531 -85.8261 241° Southwest 339 390 15,700 -2,200 Descending Memphis Center
Wed 11:43:44 AM 36.5086 -85.9189 239° Southwest 322 371 13,700 -1,850 Descending Memphis Center
Wed 11:44:44 AM 36.4697 -85.9986 239° Southwest 317 365 12,000 -1,600 Descending Memphis Center
Wed 11:45:44 AM 36.4331 -86.0856 242° Southwest 303 349 10,500 -1,350 Descending Memphis Center
Wed 11:46:44 AM 36.4047 -86.1722 248° West 279 321 9,300 -1,100 Descending Memphis Center
Wed 11:47:44 AM 36.3803 -86.2533 249° West 273 314 8,300 -1,050 Descending Memphis Center
Wed 11:48:44 AM 36.3517 -86.3347 246° West 268 308 7,200 -1,300 Descending Memphis Center
Wed 11:49:44 AM 36.3253 -86.4158 248° West 263 303 5,700 -1,600 Descending Memphis Center
Wed 11:50:44 AM 36.2989 -86.5022 249° West 251 289 4,000 -1,550 Descending Memphis Center
Wed 11:51:44 AM 36.2656 -86.5731 240° Southwest 251 289 2,600 -750 Descending Memphis Center
Wed 11:52:44 AM 36.2256 -86.6264 227° Southwest 226 260 2,500 -450 Descending Memphis Center
Wed 11:53:44 AM 36.1931 -86.6589 219° Southwest 182 209 1,700 -750 Descending Memphis Center
Wed 11:54:44 AM 36.1581 -86.6706 195° South 148 170 1,000 -550 Descending Memphis Center
Wed 11:55:44 AM 36.1208 -86.6878 200° South 143 165 600 -400 Descending Memphis Center
Wed 11:58:00 AM 36.1245 -86.6782 90° East  Level Estimated
Wed 12:05:00 PM 36.1245 -86.6782 90° East  Level Estimated
Wed 12:06:00 PM 36.1245 -86.6782 90° East  Level Estimated
Wed 12:07:00 PM 36.1245 -86.6782 90° East  Level Estimated
Wed 12:08:00 PM 36.1245 -86.6782 90° East  Level Estimated
Wed 12:09:00 PM 36.1245 -86.6782 90° East  Level Estimated
Wed 12:10:00 PM 36.1245 -86.6782 90° East  Level Estimated
Wed 12:11:00 PM 36.1245 -86.6782 90° East  Level Estimated

Login

Don't have an account? Register now (free) for customized features, flight alerts, and more!